Flight Track Log - Related Links

Times and Time Zones

All times are in EDT time to prevent confusion due to time zone crossing. See the ASQ4177 flight status page for this flight to view local times or setup timezone preferences in your user account.

Time Position Orientation Groundspeed Altitude Reporting Facility
EDT Latitude Longitude Course Direction KTS MPH feet Rate Location/Type
Sun 06:50:52 PM 29.9617 -95.3436 90° East 162 186 800  Level Houston Center
Sun 06:51:48 PM 29.9306 -95.3014 130° Southeast 209 241 2,500 1,650 Climbing Houston Center
Sun 06:52:12 PM 29.9156 -95.2775 126° Southeast 223 257 3,000 1,475 Climbing Houston Center
Sun 06:52:49 PM 29.8867 -95.2369 129° Southeast 262 302 4,000 1,935 Climbing Houston Center
Sun 06:53:14 PM 29.8683 -95.2125 131° Southeast 245 282 5,000 2,951 Climbing Houston Center
Sun 06:53:50 PM 29.8347 -95.1733 135° Southeast 265 305 7,000 2,806 Climbing Houston Center
Sun 06:54:00 PM 29.9833 -94.8469 90° East  Level FlightAware Approximate
Sun 06:54:16 PM 29.8178 -95.1511 131° Southeast 264 304 7,900  Level Houston Center
Sun 06:54:51 PM 29.8208 -95.0933 86° East 284 327 9,600 2,129 Climbing Houston Center
Sun 06:55:00 PM 29.9834 -94.7253 90° East  Level FlightAware Approximate
Sun 06:55:18 PM 29.8292 -95.0631 72° East 284 327 10,100  Level Houston Center
Sun 06:55:53 PM 29.8497 -94.9981 70° East 337 388 10,700 762 Climbing Houston Center
Sun 06:56:00 PM 29.9833 -94.6037 90° East  Level FlightAware Approximate
Sun 06:56:21 PM 29.8608 -94.9622 70° East 326 375 10,900  Level Houston Center
Sun 06:56:54 PM 29.8872 -94.8825 69° East 369 425 12,100 1,548 Climbing Houston Center
Sun 06:57:23 PM 29.8983 -94.8506 68° East 364 419 12,500 1,451 Climbing Houston Center
Sun 06:58:25 PM 29.9347 -94.7372 70° East 373 429 14,300 1,742 Climbing Houston Center
Sun 06:59:27 PM 29.9803 -94.6003 69° East 380 437 16,100 1,210 Climbing Houston Center
Sun 07:00:29 PM 29.9908 -94.4761 84° East 407 468 16,800 387 Climbing Houston Center
Sun 07:01:31 PM 29.9958 -94.3389 88° East 426 490 16,900 48 Climbing Houston Center
Sun 07:02:33 PM 30.0094 -94.1992 84° East 437 503 16,900  Level Houston Center
Sun 07:03:35 PM 30.0308 -94.0336 81° East 441 507 16,900  Level Houston Center
Sun 07:04:38 PM 30.0469 -93.8986 82° East 432 497 16,900  Level Houston Center
Sun 07:05:40 PM 30.0631 -93.7642 82° East 428 493 16,900  Level Houston Center
Sun 07:06:42 PM 30.0800 -93.6283 82° East 428 493 16,900  Level Houston Center
Sun 07:07:44 PM 30.0997 -93.4661 82° East 430 495 16,900  Level Houston Center
Sun 07:08:46 PM 30.1164 -93.3314 82° East 430 495 16,900  Level Houston Center
Sun 07:09:48 PM 30.1314 -93.1953 83° East 431 496 16,900  Level Houston Center
Sun 07:10:50 PM 30.1503 -93.0589 81° East 431 496 16,900  Level Houston Center
Sun 07:11:52 PM 30.1767 -92.9247 77° East 431 496 16,900  Level Houston Center
Sun 07:12:54 PM 30.2092 -92.7633 77° East 431 496 16,900  Level Houston Center
Sun 07:13:56 PM 30.2347 -92.6278 78° East 431 496 16,900 48 Level Houston Center
Sun 07:14:59 PM 30.2600 -92.4939 78° East 431 496 17,000 48 Climbing Houston Center
Sun 07:16:01 PM 30.2875 -92.3608 77° East 430 495 17,000 -48 Level Houston Center
Sun 07:17:03 PM 30.3122 -92.2289 78° East 427 491 16,900 -1,452 Descending Houston Center
Sun 07:18:05 PM 30.3411 -92.0742 78° East 415 478 14,000 -2,516 Descending Houston Center
Sun 07:19:07 PM 30.3647 -91.9547 77° East 389 448 11,700 -1,452 Descending Houston Center
Sun 07:20:09 PM 30.3856 -91.8411 78° East 369 425 11,000 -823 Descending Houston Center
Sun 07:21:11 PM 30.3969 -91.7456 82° East 306 352 10,000 -1,366 Descending Houston Center
Sun 07:22:12 PM 30.4083 -91.6469 82° East 291 335 8,200 -1,610 Descending Houston Center
Sun 07:23:14 PM 30.4169 -91.5575 84° East 282 325 6,700 -1,452 Descending Houston Center
Sun 07:24:16 PM 30.4283 -91.4703 81° East 277 319 5,200 -1,355 Descending Houston Center
Sun 07:25:18 PM 30.4411 -91.3694 82° East 275 316 3,900 -1,258 Descending Houston Center
Sun 07:27:00 PM 30.5035 -91.2125 79° East  Level FlightAware Approximate
Sun 07:34:00 PM 30.5329 -91.1499 79° East  Level Estimated
Sun 07:35:00 PM 30.5329 -91.1499 79° East  Level Estimated
Sun 07:36:00 PM 30.5329 -91.1499 79° East  Level Estimated
Sun 07:37:00 PM 30.5329 -91.1499 79° East  Level Estimated

Login

Don't have an account? Register now (free) for customized features, flight alerts, and more!